Costa Luminosa — ICGU — position and weather

sailwx.info

Track history (hours):
 
Tides and Currents Weather Stations Pressure Air Temp Water Temp Dewpoint Dewpoint Depression Visibility Wind Speed Wind Dir Waves Ship Positions

Costa Luminosa

Last reported at 2015-Jul-02 12:32 UTC. Time now 2015-Jul-02 12:38 UTC.
Position N 59°27' E 024°46'.

Length 294 m; draft 8.2 m.

Type: Passenger vessel. MMSI: 247257900.

Date/timePositionNaut miles runAvg speedWind from/ knotsBaromVisibWave heightAir tempDewpointWater temp
2015-Jul-02 12:32N 59°27' E 024°46'0 0.0
2015-Jul-02 11:29N 59°27' E 024°46'0 0.0
2015-Jul-02 10:20N 59°27' E 024°46'0 0.0
2015-Jul-02 09:32N 59°27' E 024°46'0 0.0
2015-Jul-02 08:32N 59°27' E 024°46'0 0.0
2015-Jul-02 07:32N 59°27' E 024°46'0 0.0
2015-Jul-02 06:26N 59°27' E 024°46'0 0.0
2015-Jul-02 05:32N 59°27' E 024°46'0 0.0
2015-Jul-02 04:32N 59°27' E 024°46'1111.5
2015-Jul-02 03:33N 59°38' E 024°41'1515.0
2015-Jul-02 02:33N 59°50' E 024°58'1616.0
2015-Jul-02 01:33N 59°53' E 025°29'1615.8
2015-Jul-02 00:33N 59°57' E 026°00'1615.8
2015-Jul-01 23:33N 60°01' E 026°30'10014.2
2015-Jul-01 16:33N 59°57' E 029°49'1110.7
2015-Jul-01 15:33N 59°57' E 030°10'0 0.4
2015-Jul-01 14:32N 59°57' E 030°11'0 0.0
2015-Jul-01 13:29N 59°57' E 030°11'0 0.0
2015-Jul-01 12:32N 59°57' E 030°11'0 0.0
2015-Jul-01 11:32N 59°57' E 030°11'0 0.0
2015-Jul-01 10:32N 59°57' E 030°11'0 0.0
2015-Jul-01 09:32N 59°57' E 030°11'0 0.0
2015-Jul-01 08:32N 59°57' E 030°11'0 0.0
2015-Jul-01 07:32N 59°57' E 030°11'0 0.0
2015-Jul-01 06:32N 59°57' E 030°11'0 0.0
2015-Jul-01 05:32N 59°57' E 030°11'0 0.0
2015-Jul-01 04:32N 59°57' E 030°11'0 0.0
2015-Jul-01 03:29N 59°57' E 030°11'0 0.0
2015-Jul-01 02:32N 59°57' E 030°11'0 0.0
2015-Jul-01 01:32N 59°57' E 030°11'0 0.0
2015-Jul-01 00:32N 59°57' E 030°11'0 0.0
2015-Jun-30 23:32N 59°57' E 030°11'0 0.0
2015-Jun-30 22:32N 59°57' E 030°11'0 0.0
2015-Jun-30 21:32N 59°57' E 030°11'0 0.0
2015-Jun-30 20:32N 59°57' E 030°11'0 0.0
2015-Jun-30 19:32N 59°57' E 030°11'0 0.0
2015-Jun-30 18:32N 59°57' E 030°11'0 0.0
2015-Jun-30 17:32N 59°57' E 030°11'0 0.0
2015-Jun-30 16:32N 59°57' E 030°11'0 0.0
2015-Jun-30 15:32N 59°57' E 030°11'0 0.0
2015-Jun-30 14:32N 59°57' E 030°11'0 0.0
2015-Jun-30 13:32N 59°57' E 030°11'0 0.0
2015-Jun-30 12:32N 59°57' E 030°11'0 0.0
2015-Jun-30 11:32N 59°57' E 030°11'0 0.0
2015-Jun-30 10:32N 59°57' E 030°11'0 0.0
2015-Jun-30 09:32N 59°57' E 030°11'0 0.0
2015-Jun-30 08:32N 59°57' E 030°11'0 0.0
2015-Jun-30 07:32N 59°57' E 030°11'0 0.0
2015-Jun-30 06:32N 59°57' E 030°11'0 0.0
2015-Jun-30 05:32N 59°57' E 030°11'0 0.2
2015-Jun-30 04:33N 59°57' E 030°11'8 8.0
2015-Jun-30 03:33N 59°56' E 029°55'1211.8
2015-Jun-30 02:33N 60°01' E 029°33'5216.7
2015-Jun-29 23:25N 60°11' E 027°50'1416.1
2015-Jun-29 22:33N 60°04' E 027°25'1313.3
2015-Jun-29 21:33N 59°58' E 027°02'1313.4
2015-Jun-29 20:33N 59°59' E 026°35'1313.4
2015-Jun-29 19:33N 59°55' E 026°10'1313.4
2015-Jun-29 18:33N 59°52' E 025°44'1312.8
2015-Jun-29 17:33N 59°55' E 025°19'1313.3
2015-Jun-29 16:33N 60°01' E 024°56'7 0.7
2015-Jun-29 06:33N 60°09' E 024°55'1312.7
2015-Jun-29 05:33N 59°56' E 024°56'1615.9
2015-Jun-29 04:33N 59°44' E 024°35'1817.6
2015-Jun-29 03:33N 59°40' E 024°01'1818.4
2015-Jun-29 02:33N 59°34' E 023°27'1918.7
2015-Jun-29 01:33N 59°28' E 022°52'2019.7
2015-Jun-29 00:33N 59°23' E 022°14'2019.7
2015-Jun-28 23:33N 59°24' E 021°36'2019.8
2015-Jun-28 22:33N 59°25' E 020°56'2319.8
2015-Jun-28 21:25N 59°27' E 020°12'1818.4
2015-Jun-28 20:25N 59°42' E 019°50'4611.3
2015-Jun-28 16:20N 59°23' E 018°27'8 9.4
2015-Jun-28 15:30N 59°20' E 018°12'3 2.7
2015-Jun-28 14:30N 59°21' E 018°07'0 0.0
2015-Jun-28 13:12N 59°21' E 018°07'0 0.0
2015-Jun-28 12:30N 59°21' E 018°07'0 0.0
2015-Jun-28 11:24N 59°21' E 018°07'0 0.0
2015-Jun-28 10:30N 59°21' E 018°07'0 0.0
2015-Jun-28 09:30N 59°21' E 018°07'0 0.0
2015-Jun-28 08:24N 59°21' E 018°07'0 0.0
2015-Jun-28 07:24N 59°21' E 018°07'0 0.0
2015-Jun-28 04:18N 59°21' E 018°07'0 0.0
2015-Jun-28 03:30N 59°21' E 018°07'0 0.0
2015-Jun-28 02:30N 59°21' E 018°07'0 0.0
2015-Jun-28 01:30N 59°21' E 018°07'0 0.0
2015-Jun-28 00:30N 59°21' E 018°07'0 0.0
2015-Jun-27 23:30N 59°21' E 018°07'0 0.0
2015-Jun-27 20:30N 59°21' E 018°07'0 0.0
2015-Jun-27 19:12N 59°21' E 018°07'0 0.0
2015-Jun-27 18:18N 59°21' E 018°07'0 0.0
2015-Jun-27 17:24N 59°21' E 018°07'0 0.0
2015-Jun-27 16:27N 59°21' E 018°07'0 0.0
2015-Jun-27 14:30N 59°21' E 018°07'0 0.0
2015-Jun-27 13:30N 59°21' E 018°07'0 0.0
2015-Jun-27 12:24N 59°21' E 018°07'0 0.0
2015-Jun-27 11:30N 59°21' E 018°07'0 0.0
2015-Jun-27 10:12N 59°21' E 018°07'0 0.0
2015-Jun-27 09:30N 59°21' E 018°07'0 0.0
2015-Jun-27 08:24N 59°21' E 018°07'0 0.0
2015-Jun-27 07:30N 59°21' E 018°07'0 0.0
2015-Jun-27 06:28N 59°21' E 018°07'0 0.0
2015-Jun-27 05:22N 59°21' E 018°07'0 0.0
2015-Jun-27 04:28N 59°21' E 018°07'0 0.0
2015-Jun-27 03:22N 59°21' E 018°07'0 0.0
2015-Jun-27 02:28N 59°21' E 018°07'0 0.0
2015-Jun-27 01:22N 59°21' E 018°07'0 0.0
2015-Jun-26 23:16N 59°21' E 018°07'0 0.0
2015-Jun-26 22:22N 59°21' E 018°07'0 0.0
2015-Jun-26 21:28N 59°21' E 018°07'0 0.0
2015-Jun-26 20:28N 59°21' E 018°07'0 0.0
2015-Jun-26 19:04N 59°21' E 018°07'0 0.0
2015-Jun-26 18:28N 59°21' E 018°07'0 0.0
2015-Jun-26 17:28N 59°21' E 018°07'0 0.0
2015-Jun-26 16:22N 59°21' E 018°07'0 0.0
2015-Jun-26 15:28N 59°21' E 018°07'0 0.0
2015-Jun-26 10:22N 59°21' E 018°07'0 0.0
2015-Jun-26 08:28N 59°21' E 018°07'0 0.0
2015-Jun-26 07:28N 59°21' E 018°07'0 0.3
2015-Jun-26 06:34N 59°21' E 018°08'8 7.9
2015-Jun-26 05:33N 59°22' E 018°23'8611.6
2015-Jun-25 22:06N 59°31' E 021°12'916.9
2015-Jun-25 21:34N 59°28' E 021°29'1716.7
2015-Jun-25 20:34N 59°27' E 022°02'1616.0
2015-Jun-25 19:33N 59°30' E 022°32'1816.8
2015-Jun-25 18:30N 59°35' E 023°06'1617.1
2015-Jun-25 17:33N 59°40' E 023°37'1717.1
2015-Jun-25 16:33N 59°45' E 024°09'62 3.9
2015-Jun-25 00:33N 59°58' E 026°09'1514.8
2015-Jun-24 23:33N 60°02' E 026°38'9413.5
2015-Jun-24 16:34N 59°59' E 029°46'1110.5
2015-Jun-24 15:33N 59°57' E 030°07'2 1.8
2015-Jun-24 14:30N 59°57' E 030°11'0 0.0
2015-Jun-24 13:33N 59°57' E 030°11'0 0.0
2015-Jun-24 12:33N 59°57' E 030°11'0 0.0
2015-Jun-24 11:33N 59°57' E 030°11'0 0.0
2015-Jun-24 10:33N 59°57' E 030°11'0 0.0
2015-Jun-24 09:30N 59°57' E 030°11'0 0.0
2015-Jun-24 08:33N 59°57' E 030°11'0 0.0
2015-Jun-24 07:33N 59°57' E 030°11'0 0.0
2015-Jun-24 06:33N 59°57' E 030°11'0 0.0
2015-Jun-24 05:33N 59°57' E 030°11'0 0.0
2015-Jun-24 04:33N 59°57' E 030°11'0 0.0
2015-Jun-24 03:33N 59°57' E 030°11'0 0.0
2015-Jun-24 02:33N 59°57' E 030°11'0 0.0
2015-Jun-24 01:33N 59°57' E 030°11'0 0.0
2015-Jun-24 00:33N 59°57' E 030°11'0 0.0
2015-Jun-23 23:33N 59°57' E 030°11'0 0.0
2015-Jun-23 22:33N 59°57' E 030°11'0 0.0
2015-Jun-23 21:33N 59°57' E 030°11'0 0.0
2015-Jun-23 20:33N 59°57' E 030°11'0 0.0
2015-Jun-23 19:33N 59°57' E 030°11'0 0.0
2015-Jun-23 19:03N 59°57' E 030°11'109 4.6
2015-Jun-22 19:33N 59°58' E 026°33'1513.7
2015-Jun-22 18:26N 59°54' E 026°04'1213.6
2015-Jun-22 17:33N 59°52' E 025°41'1813.8
2015-Jun-22 16:13N 59°47' E 025°05'1013.9
2015-Jun-22 15:31N 59°42' E 024°49'1212.2
2015-Jun-22 14:32N 59°30' E 024°46'  
Track history (hours):
 
Tides and Currents Weather Stations Pressure Air Temp Water Temp Dewpoint Dewpoint Depression Visibility Wind Speed Wind Dir Waves Ship Positions

Costa Luminosa

Last reported at 2015-Jul-02 12:32 UTC. Time now 2015-Jul-02 12:38 UTC.
Position N 59°27' E 024°46'.

Length 294 m; draft 8.2 m.

Type: Passenger vessel. MMSI: 247257900.

Date/timePositionNaut miles runAvg speedWind from/ knotsBaromVisibWave heightAir tempDewpointWater temp
2015-Jul-02 12:32N 59°27' E 024°46'0 0.0
2015-Jul-02 11:29N 59°27' E 024°46'0 0.0
2015-Jul-02 10:20N 59°27' E 024°46'0 0.0
2015-Jul-02 09:32N 59°27' E 024°46'0 0.0
2015-Jul-02 08:32N 59°27' E 024°46'0 0.0
2015-Jul-02 07:32N 59°27' E 024°46'0 0.0
2015-Jul-02 06:26N 59°27' E 024°46'0 0.0
2015-Jul-02 05:32N 59°27' E 024°46'0 0.0
2015-Jul-02 04:32N 59°27' E 024°46'1111.5
2015-Jul-02 03:33N 59°38' E 024°41'1515.0
2015-Jul-02 02:33N 59°50' E 024°58'1616.0
2015-Jul-02 01:33N 59°53' E 025°29'1615.8
2015-Jul-02 00:33N 59°57' E 026°00'1615.8
2015-Jul-01 23:33N 60°01' E 026°30'10014.2
2015-Jul-01 16:33N 59°57' E 029°49'1110.7
2015-Jul-01 15:33N 59°57' E 030°10'0 0.4
2015-Jul-01 14:32N 59°57' E 030°11'0 0.0
2015-Jul-01 13:29N 59°57' E 030°11'0 0.0
2015-Jul-01 12:32N 59°57' E 030°11'0 0.0
2015-Jul-01 11:32N 59°57' E 030°11'0 0.0
2015-Jul-01 10:32N 59°57' E 030°11'0 0.0
2015-Jul-01 09:32N 59°57' E 030°11'0 0.0
2015-Jul-01 08:32N 59°57' E 030°11'0 0.0
2015-Jul-01 07:32N 59°57' E 030°11'0 0.0
2015-Jul-01 06:32N 59°57' E 030°11'0 0.0
2015-Jul-01 05:32N 59°57' E 030°11'0 0.0
2015-Jul-01 04:32N 59°57' E 030°11'0 0.0
2015-Jul-01 03:29N 59°57' E 030°11'0 0.0
2015-Jul-01 02:32N 59°57' E 030°11'0 0.0
2015-Jul-01 01:32N 59°57' E 030°11'0 0.0
2015-Jul-01 00:32N 59°57' E 030°11'0 0.0
2015-Jun-30 23:32N 59°57' E 030°11'0 0.0
2015-Jun-30 22:32N 59°57' E 030°11'0 0.0
2015-Jun-30 21:32N 59°57' E 030°11'0 0.0
2015-Jun-30 20:32N 59°57' E 030°11'0 0.0
2015-Jun-30 19:32N 59°57' E 030°11'0 0.0
2015-Jun-30 18:32N 59°57' E 030°11'0 0.0
2015-Jun-30 17:32N 59°57' E 030°11'0 0.0
2015-Jun-30 16:32N 59°57' E 030°11'0 0.0
2015-Jun-30 15:32N 59°57' E 030°11'0 0.0
2015-Jun-30 14:32N 59°57' E 030°11'0 0.0
2015-Jun-30 13:32N 59°57' E 030°11'0 0.0
2015-Jun-30 12:32N 59°57' E 030°11'0 0.0
2015-Jun-30 11:32N 59°57' E 030°11'0 0.0
2015-Jun-30 10:32N 59°57' E 030°11'0 0.0
2015-Jun-30 09:32N 59°57' E 030°11'0 0.0
2015-Jun-30 08:32N 59°57' E 030°11'0 0.0
2015-Jun-30 07:32N 59°57' E 030°11'0 0.0
2015-Jun-30 06:32N 59°57' E 030°11'0 0.0
2015-Jun-30 05:32N 59°57' E 030°11'0 0.2
2015-Jun-30 04:33N 59°57' E 030°11'8 8.0
2015-Jun-30 03:33N 59°56' E 029°55'1211.8
2015-Jun-30 02:33N 60°01' E 029°33'5216.7
2015-Jun-29 23:25N 60°11' E 027°50'1416.1
2015-Jun-29 22:33N 60°04' E 027°25'1313.3
2015-Jun-29 21:33N 59°58' E 027°02'1313.4
2015-Jun-29 20:33N 59°59' E 026°35'1313.4
2015-Jun-29 19:33N 59°55' E 026°10'1313.4
2015-Jun-29 18:33N 59°52' E 025°44'1312.8
2015-Jun-29 17:33N 59°55' E 025°19'1313.3
2015-Jun-29 16:33N 60°01' E 024°56'7 0.7
2015-Jun-29 06:33N 60°09' E 024°55'1312.7
2015-Jun-29 05:33N 59°56' E 024°56'1615.9
2015-Jun-29 04:33N 59°44' E 024°35'1817.6
2015-Jun-29 03:33N 59°40' E 024°01'1818.4
2015-Jun-29 02:33N 59°34' E 023°27'1918.7
2015-Jun-29 01:33N 59°28' E 022°52'2019.7
2015-Jun-29 00:33N 59°23' E 022°14'2019.7
2015-Jun-28 23:33N 59°24' E 021°36'2019.8
2015-Jun-28 22:33N 59°25' E 020°56'2319.8
2015-Jun-28 21:25N 59°27' E 020°12'1818.4
2015-Jun-28 20:25N 59°42' E 019°50'4611.3
2015-Jun-28 16:20N 59°23' E 018°27'8 9.4
2015-Jun-28 15:30N 59°20' E 018°12'3 2.7
2015-Jun-28 14:30N 59°21' E 018°07'0 0.0
2015-Jun-28 13:12N 59°21' E 018°07'0 0.0
2015-Jun-28 12:30N 59°21' E 018°07'0 0.0
2015-Jun-28 11:24N 59°21' E 018°07'0 0.0
2015-Jun-28 10:30N 59°21' E 018°07'0 0.0
2015-Jun-28 09:30N 59°21' E 018°07'0 0.0
2015-Jun-28 08:24N 59°21' E 018°07'0 0.0
2015-Jun-28 07:24N 59°21' E 018°07'0 0.0
2015-Jun-28 04:18N 59°21' E 018°07'0 0.0
2015-Jun-28 03:30N 59°21' E 018°07'0 0.0
2015-Jun-28 02:30N 59°21' E 018°07'0 0.0
2015-Jun-28 01:30N 59°21' E 018°07'0 0.0
2015-Jun-28 00:30N 59°21' E 018°07'0 0.0
2015-Jun-27 23:30N 59°21' E 018°07'0 0.0
2015-Jun-27 20:30N 59°21' E 018°07'0 0.0
2015-Jun-27 19:12N 59°21' E 018°07'0 0.0
2015-Jun-27 18:18N 59°21' E 018°07'0 0.0
2015-Jun-27 17:24N 59°21' E 018°07'0 0.0
2015-Jun-27 16:27N 59°21' E 018°07'0 0.0
2015-Jun-27 14:30N 59°21' E 018°07'0 0.0
2015-Jun-27 13:30N 59°21' E 018°07'0 0.0
2015-Jun-27 12:24N 59°21' E 018°07'0 0.0
2015-Jun-27 11:30N 59°21' E 018°07'0 0.0
2015-Jun-27 10:12N 59°21' E 018°07'0 0.0
2015-Jun-27 09:30N 59°21' E 018°07'0 0.0
2015-Jun-27 08:24N 59°21' E 018°07'0 0.0
2015-Jun-27 07:30N 59°21' E 018°07'0 0.0
2015-Jun-27 06:28N 59°21' E 018°07'0 0.0
2015-Jun-27 05:22N 59°21' E 018°07'0 0.0
2015-Jun-27 04:28N 59°21' E 018°07'0 0.0
2015-Jun-27 03:22N 59°21' E 018°07'0 0.0
2015-Jun-27 02:28N 59°21' E 018°07'0 0.0
2015-Jun-27 01:22N 59°21' E 018°07'0 0.0
2015-Jun-26 23:16N 59°21' E 018°07'0 0.0
2015-Jun-26 22:22N 59°21' E 018°07'0 0.0
2015-Jun-26 21:28N 59°21' E 018°07'0 0.0
2015-Jun-26 20:28N 59°21' E 018°07'0 0.0
2015-Jun-26 19:04N 59°21' E 018°07'0 0.0
2015-Jun-26 18:28N 59°21' E 018°07'0 0.0
2015-Jun-26 17:28N 59°21' E 018°07'0 0.0
2015-Jun-26 16:22N 59°21' E 018°07'0 0.0
2015-Jun-26 15:28N 59°21' E 018°07'0 0.0
2015-Jun-26 10:22N 59°21' E 018°07'0 0.0
2015-Jun-26 08:28N 59°21' E 018°07'0 0.0
2015-Jun-26 07:28N 59°21' E 018°07'0 0.3
2015-Jun-26 06:34N 59°21' E 018°08'8 7.9
2015-Jun-26 05:33N 59°22' E 018°23'8611.6
2015-Jun-25 22:06N 59°31' E 021°12'916.9
2015-Jun-25 21:34N 59°28' E 021°29'1716.7
2015-Jun-25 20:34N 59°27' E 022°02'1616.0
2015-Jun-25 19:33N 59°30' E 022°32'1816.8
2015-Jun-25 18:30N 59°35' E 023°06'1617.1
2015-Jun-25 17:33N 59°40' E 023°37'1717.1
2015-Jun-25 16:33N 59°45' E 024°09'62 3.9
2015-Jun-25 00:33N 59°58' E 026°09'1514.8
2015-Jun-24 23:33N 60°02' E 026°38'9413.5
2015-Jun-24 16:34N 59°59' E 029°46'1110.5
2015-Jun-24 15:33N 59°57' E 030°07'2 1.8
2015-Jun-24 14:30N 59°57' E 030°11'0 0.0
2015-Jun-24 13:33N 59°57' E 030°11'0 0.0
2015-Jun-24 12:33N 59°57' E 030°11'0 0.0
2015-Jun-24 11:33N 59°57' E 030°11'0 0.0
2015-Jun-24 10:33N 59°57' E 030°11'0 0.0
2015-Jun-24 09:30N 59°57' E 030°11'0 0.0
2015-Jun-24 08:33N 59°57' E 030°11'0 0.0
2015-Jun-24 07:33N 59°57' E 030°11'0 0.0
2015-Jun-24 06:33N 59°57' E 030°11'0 0.0
2015-Jun-24 05:33N 59°57' E 030°11'0 0.0
2015-Jun-24 04:33N 59°57' E 030°11'0 0.0
2015-Jun-24 03:33N 59°57' E 030°11'0 0.0
2015-Jun-24 02:33N 59°57' E 030°11'0 0.0
2015-Jun-24 01:33N 59°57' E 030°11'0 0.0
2015-Jun-24 00:33N 59°57' E 030°11'0 0.0
2015-Jun-23 23:33N 59°57' E 030°11'0 0.0
2015-Jun-23 22:33N 59°57' E 030°11'0 0.0
2015-Jun-23 21:33N 59°57' E 030°11'0 0.0
2015-Jun-23 20:33N 59°57' E 030°11'0 0.0
2015-Jun-23 19:33N 59°57' E 030°11'0 0.0
2015-Jun-23 19:03N 59°57' E 030°11'109 4.6
2015-Jun-22 19:33N 59°58' E 026°33'1513.7
2015-Jun-22 18:26N 59°54' E 026°04'1213.6
2015-Jun-22 17:33N 59°52' E 025°41'1813.8
2015-Jun-22 16:13N 59°47' E 025°05'1013.9
2015-Jun-22 15:31N 59°42' E 024°49'1212.2
2015-Jun-22 14:32N 59°30' E 024°46'  

Dump ship's entire track history